Gordon Reid — CGBR — position and weather

sailwx.info

Track history (hours):
 
Tides and Currents Weather Stations Pressure Air Temp Water Temp Dewpoint Dewpoint Depression Visibility Wind Speed Wind Dir Waves Ship Positions

Gordon Reid

Last reported at 2014-Nov-27 20:00 UTC. Time now 2014-Nov-27 21:59 UTC.
Position N 53°30' W 129°12'.

Length 49.95 m; beam 11 m; draft 5.4 m.

Type: SAR. MMSI: 316094000.

Wind from 300 at 7 knots

Barometer 1002.9 mb
Air temperature 5.1 ° C
Dewpoint 0.8 ° C
Water temperature 8.3 ° C

Date/timePositionNaut miles runAvg speedWind from/ knotsBaromVisibWave heightAir tempDewpointWater temp
2014-Nov-27 20:00N 53°30' W 129°12'0 0.0 300 / 71002.9 5.1 0.8 8.3
2014-Nov-27 19:00N 53°30' W 129°12'0 0.0 280 / 61003.0 5.1 1.2 8.4
2014-Nov-27 18:00N 53°30' W 129°12'7 7.0 040 / 71002.3 5.6 2.4 8.2
2014-Nov-27 17:00N 53°24' W 129°18'0 0.0 010 / 61002.1 5.4 3.0
2014-Nov-27 16:00N 53°24' W 129°18'0 0.0 360 / 91002.0 5.4 3.4
2014-Nov-27 15:00N 53°24' W 129°18'0 0.0 350 / 81001.7 5.5 3.2
2014-Nov-27 14:00N 53°24' W 129°18'0 0.0 020 / 81002.2 5.8 3.6
2014-Nov-27 13:00N 53°24' W 129°18'0 0.0 360 / 41002.0 5.8 4.1
2014-Nov-27 12:00N 53°24' W 129°18'0 0.0 360 / 91002.0 5.8 4.0
2014-Nov-27 11:00N 53°24' W 129°18'0 0.0 010 / 81002.2 5.8 4.4
2014-Nov-27 10:00N 53°24' W 129°18'0 0.0 010 / 91002.3 5.7 4.5
2014-Nov-27 09:00N 53°24' W 129°18'0 0.0 010 / 111002.6 5.5 4.7
2014-Nov-27 08:00N 53°24' W 129°18'0 0.0 010 / 131002.8 5.4 5.0
2014-Nov-27 07:00N 53°24' W 129°18'0 0.0 010 / 131003.0 5.2 5.1
2014-Nov-27 06:00N 53°24' W 129°18'0 0.0 010 / 121003.6 5.0 4.9
2014-Nov-27 05:00N 53°24' W 129°18'0 0.0 360 / 141004.3 5.3 5.2
2014-Nov-27 04:00N 53°24' W 129°18'0 0.0 020 / 141005.2 5.7 5.4
2014-Nov-27 03:00N 53°24' W 129°18'0 0.0 030 / 141006.4 6.5 4.9 8.5
2014-Nov-27 02:00N 53°24' W 129°18'0 0.0 020 / 131007.4 6.7 4.7 8.7
2014-Nov-27 01:00N 53°24' W 129°18'7 7.2 360 / 81008.5 6.5 4.6 8.4
2014-Nov-27 00:00N 53°24' W 129°06'9 9.3 050 / 171010.3 10.4 8.1 9.4
2014-Nov-26 23:00N 53°30' W 128°54'4 3.6 080 / 91011.7 6.0 4.6 9.0
2014-Nov-26 22:00N 53°30' W 128°48'0 0.0 040 / 31013.3 4.6 4.6 9.1
2014-Nov-26 21:00N 53°30' W 128°48'0 0.0 110 / 11014.8 4.7 4.7 9.1
2014-Nov-26 20:00N 53°30' W 128°48'7 7.0 010 / 31016.5 4.3 4.3 9.1
2014-Nov-26 19:00N 53°24' W 128°54'7 7.0 020 / 141015.9 5.0 4.9 9.0
2014-Nov-26 18:00N 53°18' W 129°00'7 7.0 030 / 101016.4 5.8 5.7 9.1
2014-Nov-26 17:00N 53°12' W 129°06'6 6.0 020 / 71016.5 6.0 5.9 9.7
2014-Nov-26 16:00N 53°06' W 129°06'0 0.0 120 / 31017.0 4.4 4.6
2014-Nov-26 15:00N 53°06' W 129°06'0 0.0 120 / 51017.3 4.1 4.3
2014-Nov-26 14:00N 53°06' W 129°06'0 0.0 110 / 51017.5 4.2 4.4
2014-Nov-26 13:00N 53°06' W 129°06'0 0.0 140 / 31018.3 4.4 4.6
2014-Nov-26 12:00N 53°06' W 129°06'0 0.0 130 / 61019.4 4.3 4.5
2014-Nov-26 11:00N 53°06' W 129°06'0 0.0 120 / 71019.7 4.3 4.5
2014-Nov-26 10:00N 53°06' W 129°06'0 0.0 120 / 71019.6 4.3 4.5
2014-Nov-26 09:00N 53°06' W 129°06'0 0.0 110 / 61020.7 4.6 4.8
2014-Nov-26 08:00N 53°06' W 129°06'0 0.0 110 / 41021.2 4.9 5.1
2014-Nov-26 07:00N 53°06' W 129°06'0 0.0 110 / 51021.7 5.0 5.2
2014-Nov-26 06:00N 53°06' W 129°06'0 0.0 110 / 61021.6 5.1 5.3
2014-Nov-26 05:00N 53°06' W 129°06'0 0.0 170 / 21021.8 5.4 5.6
2014-Nov-26 04:00N 53°06' W 129°06'0 0.0 100 / 41021.8 5.2 5.4
2014-Nov-26 03:00N 53°06' W 129°06'0 0.0 110 / 31022.3 5.4 5.610.2
2014-Nov-26 02:00N 53°06' W 129°06'0 0.0 120 / 31022.4 5.5 5.610.2
2014-Nov-26 01:00N 53°06' W 129°06'1414.0 140 / 31022.5 6.3 6.3 9.7
2014-Nov-26 00:00N 52°54' W 129°18'7 7.2 030 / 141021.7 6.6 6.6 9.5
2014-Nov-25 23:00N 52°54' W 129°30'7 7.0 040 / 111022.3 7.5 7.511.1
2014-Nov-25 22:00N 52°48' W 129°36'4 3.6 020 / 71023.1 7.5 7.611.5
2014-Nov-25 21:00N 52°48' W 129°30'0 0.0 070 / 81023.0 7.8 7.911.5
2014-Nov-25 20:00N 52°48' W 129°30'6 6.0 070 / 41023.2 7.6 7.711.4
2014-Nov-25 19:00N 52°54' W 129°30'6 6.0 060 / 81023.6 8.7 8.810.4
2014-Nov-25 18:00N 53°00' W 129°30'1414.0 040 / 61023.5 6.2 6.410.2
2014-Nov-25 17:00N 53°12' W 129°42'7 7.0 070 / 61023.0 6.0 6.2 9.5
2014-Nov-25 16:00N 53°18' W 129°36'0 0.0 100 / 51023.1 4.3 4.6
2014-Nov-25 15:00N 53°18' W 129°36'0 0.0 100 / 51022.9 4.2 4.4
2014-Nov-25 14:00N 53°18' W 129°36'0 0.0 110 / 51022.9 3.9 4.2
2014-Nov-25 13:00N 53°18' W 129°36'0 0.0 120 / 51022.4 3.3 3.6
2014-Nov-25 12:00N 53°18' W 129°36'0 0.0 130 / 41022.3 3.1 3.4
2014-Nov-25 11:00N 53°18' W 129°36'0 0.0 110 / 51022.1 3.5 3.8
2014-Nov-25 10:00N 53°18' W 129°36'0 0.0 140 / 41021.9 3.7 4.0
2014-Nov-25 09:00N 53°18' W 129°36'0 0.0 140 / 51021.6 3.1 3.4
2014-Nov-25 08:00N 53°18' W 129°36'0 0.0 100 / 41021.3 3.2 3.5
2014-Nov-25 07:00N 53°18' W 129°36'0 0.0 090 / 31020.7 3.7 3.9
2014-Nov-25 06:00N 53°18' W 129°36'0 0.0 110 / 61020.0 3.8 4.1
2014-Nov-25 05:00N 53°18' W 129°36'0 0.0 110 / 31019.4 4.3 4.6
2014-Nov-25 04:00N 53°18' W 129°36'0 0.0 110 / 51018.6 4.7 4.9
2014-Nov-25 03:00N 53°18' W 129°36'0 0.0 110 / 21018.3 4.8 5.0
2014-Nov-25 02:00N 53°18' W 129°36'0 0.0 120 / 41017.4 4.4 4.7
2014-Nov-25 01:00N 53°18' W 129°36'0 0.0 120 / 41016.8 4.6 4.8
2014-Nov-25 00:00N 53°18' W 129°36'0 0.0 110 / 51016.1 5.0 5.2
2014-Nov-24 23:00N 53°18' W 129°36'0 0.0 100 / 41015.5 5.2 5.4
2014-Nov-24 22:00N 53°18' W 129°36'0 0.0 120 / 31014.9 5.2 5.4
2014-Nov-24 21:00N 53°18' W 129°36'0 0.0 110 / 41014.3 5.1 5.3
2014-Nov-24 20:00N 53°18' W 129°36'0 0.0 090 / 31013.8 5.7 5.9
2014-Nov-24 19:00N 53°18' W 129°36'0 0.0 080 / 51013.0 5.0 5.2
2014-Nov-24 18:00N 53°18' W 129°36'0 0.0 070 / 31012.0 5.2 5.4
2014-Nov-24 17:00N 53°18' W 129°36'0 0.0 100 / 61011.3 5.0 5.1
2014-Nov-24 16:00N 53°18' W 129°36'0 0.0 090 / 91010.9 5.4 5.5
2014-Nov-24 15:00N 53°18' W 129°36'0 0.0 100 / 101010.3 5.5 5.6
2014-Nov-24 14:00N 53°18' W 129°36'0 0.0 110 / 101010.6 6.6 6.6
2014-Nov-24 13:00N 53°18' W 129°36'0 0.0 090 / 151011.0 5.4 5.5
2014-Nov-24 12:00N 53°18' W 129°36'0 0.0 110 / 101012.1 7.4 7.4
2014-Nov-24 11:00N 53°18' W 129°36'0 0.0 170 / 131013.4 8.2 8.2
2014-Nov-24 10:00N 53°18' W 129°36'0 0.0 160 / 91014.3 8.0 8.0
2014-Nov-24 09:00N 53°18' W 129°36'0 0.0 140 / 91015.5 7.7 7.7
2014-Nov-24 08:00N 53°18' W 129°36'0 0.0 150 / 41016.4 7.7 7.8
2014-Nov-24 07:00N 53°18' W 129°36'0 0.0 120 / 61016.6 8.9 8.9
2014-Nov-24 06:00N 53°18' W 129°36'0 0.0 150 / 61017.3 8.4 8.6
2014-Nov-24 05:00N 53°18' W 129°36'0 0.0 100 / 61017.7 5.4 5.7
2014-Nov-24 04:00N 53°18' W 129°36'0 0.0 090 / 81017.5 5.0 5.3
2014-Nov-24 03:00N 53°18' W 129°36'0 0.0 110 / 71017.5 4.8 5.1
2014-Nov-24 02:00N 53°18' W 129°36'0 0.0 110 / 71017.5 5.1 5.4
2014-Nov-24 01:00N 53°18' W 129°36'0 0.0 110 / 31016.7 6.1 6.3
2014-Nov-24 00:00N 53°18' W 129°36'0 0.0 100 / 41015.9 7.0 7.2
2014-Nov-23 23:00N 53°18' W 129°36'0 0.0 230 / 11014.8 9.2 9.3 9.5
2014-Nov-23 22:00N 53°18' W 129°36'0 0.0 230 / 11014.5 9.1 9.2 9.7
2014-Nov-23 21:00N 53°18' W 129°36'4 3.6 300 / 11013.6 9.4 9.4 9.6
2014-Nov-23 20:00N 53°18' W 129°42'9 9.3 220 / 81012.7 7.7 7.8 9.2
2014-Nov-23 19:00N 53°24' W 129°54'7 7.0 300 / 31011.3 7.6 7.7 9.3
2014-Nov-23 18:00N 53°30' W 130°00'0 0.0 310 / 51009.7 6.3 6.5
2014-Nov-23 17:00N 53°30' W 130°00'0 0.0 300 / 71008.5 6.1 6.3
2014-Nov-23 16:00N 53°30' W 130°00'0 0.0 290 / 111006.7 6.2 6.3
2014-Nov-23 15:00N 53°30' W 130°00'0 0.0 290 / 141004.1 6.8 7.0
2014-Nov-23 14:00N 53°30' W 130°00'0 0.0 250 / 111002.5 6.7 6.9
2014-Nov-23 13:00N 53°30' W 130°00'0 0.0 160 / 21001.3 5.8 6.0
2014-Nov-23 12:00N 53°30' W 130°00'0 0.0 160 / 11000.2 5.4 5.6
2014-Nov-23 11:00N 53°30' W 130°00'0 0.0 220 / 2999.4 4.9 5.0
2014-Nov-23 10:00N 53°30' W 130°00'0 0.0 110 / 4999.1 4.7 4.8
2014-Nov-23 09:00N 53°30' W 130°00'0 0.0 130 / 3998.8 5.2 5.3
2014-Nov-23 08:00N 53°30' W 130°00'0 0.0 180 / 11999.5 5.7 5.8
2014-Nov-23 07:00N 53°30' W 130°00'0 0.0 170 / 91000.2 7.0 7.1
2014-Nov-23 06:00N 53°30' W 130°00'0 0.0 140 / 41001.1 7.6 7.6
2014-Nov-23 05:00N 53°30' W 130°00'0 0.0 140 / 101002.6 8.1 8.2
2014-Nov-23 04:00N 53°30' W 130°00'0 0.0 150 / 91003.2 8.3 8.4
2014-Nov-23 03:00N 53°30' W 130°00'0 0.0 140 / 91003.8 7.8 7.8
2014-Nov-23 02:00N 53°30' W 130°00'0 0.0 170 / 121003.8 8.1 8.2
2014-Nov-23 01:00N 53°30' W 130°00'0 0.0 160 / 91003.7 8.7 8.7
2014-Nov-23 00:00N 53°30' W 130°00'0 0.0 190 / 81003.0 9.1 9.1
2014-Nov-22 23:00N 53°30' W 130°00'0 0.0 170 / 61003.0 8.9 9.0
2014-Nov-22 22:00N 53°30' W 130°00'0 0.0 170 / 71002.8 8.4 8.5
2014-Nov-22 21:00N 53°30' W 130°00'0 0.0 160 / 71002.4 7.6 7.7
2014-Nov-22 20:00N 53°30' W 130°00'0 0.0 140 / 111002.1 7.2 7.3
2014-Nov-22 19:00N 53°30' W 130°00'0 0.0 150 / 71001.8 7.4 7.5
2014-Nov-22 18:00N 53°30' W 130°00'0 0.0 160 / 81001.0 7.3 7.5
2014-Nov-22 17:00N 53°30' W 130°00'0 0.0 160 / 101000.4 6.9 7.1
2014-Nov-22 16:00N 53°30' W 130°00'0 0.0 160 / 9999.8 7.0 7.1
2014-Nov-22 15:00N 53°30' W 130°00'0 0.0 150 / 9999.2 7.0 7.1
2014-Nov-22 14:00N 53°30' W 130°00'0 0.0 140 / 7998.7 6.9 7.0
2014-Nov-22 13:00N 53°30' W 130°00'0 0.0 110 / 1998.0 6.5 6.7
2014-Nov-22 12:00N 53°30' W 130°00'0 0.0 100 / 4997.3 5.7 5.9
2014-Nov-22 11:00N 53°30' W 130°00'0 0.0 100 / 3996.7 5.6 5.8
2014-Nov-22 10:00N 53°30' W 130°00'0 0.0 120 / 3995.8 5.5 5.7
2014-Nov-22 09:00N 53°30' W 130°00'0 0.0 080 / 1995.1 5.6 5.8
2014-Nov-22 08:00N 53°30' W 130°00'0 0.0 130 / 3994.2 6.0 6.1
2014-Nov-22 07:00N 53°30' W 130°00'0 0.0 090 / 3993.6 6.7 6.8
2014-Nov-22 06:00N 53°30' W 130°00'0 0.0 040 / 2993.0 7.1 7.3
2014-Nov-22 05:00N 53°30' W 130°00'0 0.0 010 / 4992.4 7.1 7.2
2014-Nov-22 04:00N 53°30' W 130°00'0 0.0 340 / 2992.1 6.9 7.1
2014-Nov-22 03:00N 53°30' W 130°00'0 0.0 310 / 2991.7 7.0 7.1
2014-Nov-22 02:00N 53°30' W 130°00'0 0.0 320 / 4991.4 7.7 7.8
2014-Nov-22 01:00N 53°30' W 130°00'0 0.0 310 / 6991.1 7.8 7.9
2014-Nov-22 00:00N 53°30' W 130°00'0 0.0 300 / 5990.7 7.7 7.8
2014-Nov-21 23:00N 53°30' W 130°00'0 0.0 280 / 3990.4 7.8 7.9 9.6
2014-Nov-21 22:00N 53°30' W 130°00'0 0.0 300 / 2990.6 7.6 7.7 9.5
2014-Nov-21 21:00N 53°30' W 130°00'1312.5 330 / 3990.7 7.0 7.1 9.4
2014-Nov-21 20:00N 53°42' W 130°06'7 7.0 220 / 4991.1 7.0 7.2 9.4
2014-Nov-21 19:00N 53°48' W 130°12'6 6.0 250 / 6990.7 7.0 7.110.2
2014-Nov-21 18:00N 53°54' W 130°12'1312.5 130 / 31988.3 6.9 7.1 9.6
2014-Nov-21 17:00N 54°06' W 130°18'7 7.0 150 / 17989.2 7.3 7.510.3
2014-Nov-21 16:00N 54°06' W 130°30'0 0.0 160 / 15990.9 7.7 7.9
2014-Nov-21 15:00N 54°06' W 130°30'0 0.0 150 / 16991.6 7.9 8.0
2014-Nov-21 14:00N 54°06' W 130°30'0 0.0 150 / 14992.4 7.7 7.9
2014-Nov-21 13:00N 54°06' W 130°30'0 0.0 170 / 12993.5 8.0 8.1
2014-Nov-21 12:00N 54°06' W 130°30'0 0.0 160 / 13994.2 8.2 8.3
2014-Nov-21 11:00N 54°06' W 130°30'0 0.0 150 / 10995.7 8.1 8.1
2014-Nov-21 10:00N 54°06' W 130°30'0 0.0 140 / 12996.3 8.8 8.8
2014-Nov-21 09:00N 54°06' W 130°30'0 0.0 110 / 6997.7 8.1 8.1
2014-Nov-21 08:00N 54°06' W 130°30'0 0.0 140 / 5998.5 9.1 9.1
2014-Nov-21 07:00N 54°06' W 130°30'0 0.0 150 / 24998.5 9.3 9.3
2014-Nov-21 06:00N 54°06' W 130°30'0 0.0 150 / 16998.9 9.4 9.5
2014-Nov-21 05:00N 54°06' W 130°30'0 0.0 210 / 10998.4 9.810.010.2
2014-Nov-21 04:00N 54°06' W 130°30'0 0.0 180 / 8997.4 10.110.410.3
2014-Nov-21 03:00N 54°06' W 130°30'7 7.0 170 / 12997.0 9.3 9.510.2
2014-Nov-21 02:00N 54°12' W 130°24'4 7.8 100 / 8997.2 8.6 8.8 9.5
2014-Nov-21 01:26N 54°16' W 130°22'3 6.6
2014-Nov-21 01:00N 54°18' W 130°18'0 0.0 040 / 6998.0 8.8 9.1 9.2
2014-Nov-21 00:00N 54°18' W 130°18'0 0.0 150 / 4998.4 8.4 8.6 9.9
2014-Nov-20 23:00N 54°18' W 130°18'0 0.0 130 / 1998.9 8.3 8.6 9.8
2014-Nov-20 22:00N 54°18' W 130°18'0 0.0 140 / 5999.5 8.3 8.5 9.7
2014-Nov-20 21:00N 54°18' W 130°18'0 0.0 110 / 6999.7 9.1 9.3 9.0
2014-Nov-20 20:00N 54°18' W 130°18'1 3.0 080 / 21000.6 7.9 8.1
2014-Nov-20 19:32N 54°19' W 130°19'1 2.5
2014-Nov-20 19:00N 54°18' W 130°18'1 2.7 1001.2 8.7 8.9 9.2
2014-Nov-20 18:29N 54°19' W 130°19'1 2.8
2014-Nov-20 18:00N 54°18' W 130°18'1 2.5 080 / 21001.4 8.5 8.7 9.1
2014-Nov-20 17:26N 54°19' W 130°19'1 3.1
2014-Nov-20 17:00N 54°18' W 130°18'1 3.0 350 / 11001.7 8.6 8.8 8.9
2014-Nov-20 16:32N 54°19' W 130°19'1 2.5
2014-Nov-20 16:00N 54°18' W 130°18'3 5.9 060 / 61002.1 8.2 8.4 8.2
2014-Nov-20 15:33N 54°17' W 130°22'5 9.0
2014-Nov-20 15:00N 54°12' W 130°24'7 7.0 120 / 131002.3 8.1 8.2 9.2
2014-Nov-20 14:00N 54°06' W 130°18'1312.5 080 / 121002.8 6.7 6.9 9.5
2014-Nov-20 13:00N 53°54' W 130°12'4 3.5 130 / 171002.9 8.9 9.0 9.5
2014-Nov-20 12:00N 53°54' W 130°18'7 7.0 040 / 81002.9 8.8 8.9 9.7
2014-Nov-20 11:00N 53°48' W 130°12'7 7.0 130 / 71003.2 11.811.8 9.9
2014-Nov-20 10:00N 53°42' W 130°06'1312.5 110 / 121003.8 10.510.6 9.1
2014-Nov-20 09:00N 53°30' W 130°00'7 7.0 110 / 31004.3 8.4 8.7 8.9
2014-Nov-20 08:00N 53°24' W 129°54'7 7.0 140 / 21004.7 8.6 8.8 9.0
2014-Nov-20 07:00N 53°18' W 129°48'4 3.6 040 / 51004.6 9.3 9.3 9.0
2014-Nov-20 06:00N 53°18' W 129°42'0 0.0 110 / 91005.0 9.2 9.2
2014-Nov-20 05:00N 53°18' W 129°42'0 0.0 330 / 31005.3 8.7 8.8
2014-Nov-20 04:00N 53°18' W 129°42'0 0.0 120 / 131006.5 8.6 8.7
2014-Nov-20 03:00N 53°18' W 129°42'0 0.0 110 / 91007.1 8.9 9.0 9.1
2014-Nov-20 02:00N 53°18' W 129°42'0 0.0 100 / 131007.3 8.4 8.5 9.1
2014-Nov-20 01:00N 53°18' W 129°42'0 0.0 120 / 101008.2 7.8 7.9 9.1
2014-Nov-20 00:00N 53°18' W 129°42'1312.5 110 / 111008.1 7.9 8.0 9.0
2014-Nov-19 23:00N 53°06' W 129°36'7 3.5 070 / 101008.0 7.9 8.0 9.4
2014-Nov-19 21:00N 53°00' W 129°30'1414.0 050 / 61008.4 8.8 8.8 9.6
2014-Nov-19 20:00N 53°12' W 129°42'1414.0 120 / 161009.3 7.6 7.7 9.1
2014-Nov-19 19:00N 53°24' W 129°54'7 7.0 290 / 71009.9 8.1 8.3 9.0
2014-Nov-19 18:00N 53°30' W 130°00'0 0.0 090 / 11010.8 8.5 8.6
2014-Nov-19 17:00N 53°30' W 130°00'0 0.0 090 / 71011.0 9.3 9.4
2014-Nov-19 16:00N 53°30' W 130°00'0 0.0 180 / 31011.4 9.6 9.6
2014-Nov-19 15:00N 53°30' W 130°00'0 0.0 150 / 61011.7 10.310.2
2014-Nov-19 14:00N 53°30' W 130°00'0 0.0 190 / 41012.0 9.7 9.7
2014-Nov-19 13:00N 53°30' W 130°00'0 0.0 140 / 71012.5 9.8 9.8
2014-Nov-19 12:00N 53°30' W 130°00'0 0.0 170 / 91012.8 10.310.3
2014-Nov-19 11:00N 53°30' W 130°00'0 0.0 150 / 81013.5 10.710.7
2014-Nov-19 10:00N 53°30' W 130°00'0 0.0 180 / 81013.8 10.210.2
2014-Nov-19 09:00N 53°30' W 130°00'0 0.0 140 / 51014.0 10.410.4
2014-Nov-19 08:00N 53°30' W 130°00'0 0.0 180 / 51014.0 10.210.2
2014-Nov-19 07:00N 53°30' W 130°00'0 0.0 160 / 51014.3 10.810.9
2014-Nov-19 06:00N 53°30' W 130°00'0 0.0 140 / 51014.4 10.310.4
2014-Nov-19 05:00N 53°30' W 130°00'0 0.0 140 / 41014.6 10.210.3
2014-Nov-19 04:00N 53°30' W 130°00'0 0.0 130 / 61014.9 10.310.4
2014-Nov-19 03:00N 53°30' W 130°00'0 0.0 140 / 61015.2 10.110.3
2014-Nov-19 02:00N 53°30' W 130°00'0 0.0 160 / 31015.6 9.810.0
2014-Nov-19 01:00N 53°30' W 130°00'0 0.0 150 / 11015.8 8.6 8.9 9.0
2014-Nov-19 00:00N 53°30' W 130°00'0 0.0 170 / 21016.0 8.9 9.1 8.9
2014-Nov-18 23:00N 53°30' W 130°00'7 7.0 160 / 71016.0 8.7 8.9 9.0
2014-Nov-18 22:00N 53°24' W 129°54'2210.8 120 / 151016.2 10.210.4 8.8
2014-Nov-18 20:00N 53°12' W 129°24'1414.0 050 / 121018.0 5.3 5.4 8.6
2014-Nov-18 19:00N 53°24' W 129°12'6 6.0 010 / 271019.3 13.713.1 8.8
2014-Nov-18 18:00N 53°30' W 129°12'0 0.0 310 / 81019.5 2.8 2.8
2014-Nov-18 17:00N 53°30' W 129°12'0 0.0 300 / 151019.4 2.5 2.5
2014-Nov-18 16:00N 53°30' W 129°12'0 0.0 310 / 21019.5 2.7 2.7
2014-Nov-18 15:00N 53°30' W 129°12'0 0.0 320 / 21019.8 2.3 2.3
2014-Nov-18 14:00N 53°30' W 129°12'0 0.0 310 / 31020.1 2.4 2.4
2014-Nov-18 13:00N 53°30' W 129°12'0 0.0 280 / 81020.8 2.8 2.7
2014-Nov-18 12:00N 53°30' W 129°12'0 0.0 240 / 51020.4 3.2 2.9
2014-Nov-18 11:00N 53°30' W 129°12'0 0.0 310 / 51021.2 3.1 2.8
2014-Nov-18 10:00N 53°30' W 129°12'0 0.0 020 / 101021.8 3.7 1.7
2014-Nov-18 09:00N 53°30' W 129°12'0 0.0 340 / 61021.0 4.1 0.8
2014-Nov-18 08:00N 53°30' W 129°12'0 0.0 010 / 81020.8 4.1 0.8
2014-Nov-18 07:00N 53°30' W 129°12'0 0.0 030 / 71021.4 3.8 0.6
2014-Nov-18 06:00N 53°30' W 129°12'0 0.0 360 / 51021.8 3.9 0.5
2014-Nov-18 05:00N 53°30' W 129°12'0 0.0 340 / 21022.3 3.9 0.8
2014-Nov-18 04:00N 53°30' W 129°12'0 0.0 340 / 51023.0 3.8 0.4
2014-Nov-18 03:00N 53°30' W 129°12'0 0.0 330 / 81023.5 3.6 0.3
2014-Nov-18 02:00N 53°30' W 129°12'0 0.0 360 / 41024.3 3.8 0.5
2014-Nov-18 01:00N 53°30' W 129°12'0 0.0 310 / 61024.7 3.8 0.8
2014-Nov-18 00:00N 53°30' W 129°12'0 0.0 320 / 71025.3 4.2 0.9
2014-Nov-17 23:00N 53°30' W 129°12'0 0.0 360 / 41025.8 4.2 1.0
2014-Nov-17 22:00N 53°30' W 129°12'0 0.0 320 / 81026.4 3.9 0.7
2014-Nov-17 21:00N 53°30' W 129°12'0 0.0 320 / 71026.9 3.6 0.7
2014-Nov-17 20:00N 53°30' W 129°12'   330 / 61027.6 3.0 0.3
Track history (hours):
 
Tides and Currents Weather Stations Pressure Air Temp Water Temp Dewpoint Dewpoint Depression Visibility Wind Speed Wind Dir Waves Ship Positions

Gordon Reid

Last reported at 2014-Nov-27 20:00 UTC. Time now 2014-Nov-27 21:59 UTC.
Position N 53°30' W 129°12'.

Length 49.95 m; beam 11 m; draft 5.4 m.

Type: SAR. MMSI: 316094000.

Wind from 300 at 7 knots

Barometer 1002.9 mb
Air temperature 5.1 ° C
Dewpoint 0.8 ° C
Water temperature 8.3 ° C

Date/timePositionNaut miles runAvg speedWind from/ knotsBaromVisibWave heightAir tempDewpointWater temp
2014-Nov-27 20:00N 53°30' W 129°12'0 0.0 300 / 71002.9 5.1 0.8 8.3
2014-Nov-27 19:00N 53°30' W 129°12'0 0.0 280 / 61003.0 5.1 1.2 8.4
2014-Nov-27 18:00N 53°30' W 129°12'7 7.0 040 / 71002.3 5.6 2.4 8.2
2014-Nov-27 17:00N 53°24' W 129°18'0 0.0 010 / 61002.1 5.4 3.0
2014-Nov-27 16:00N 53°24' W 129°18'0 0.0 360 / 91002.0 5.4 3.4
2014-Nov-27 15:00N 53°24' W 129°18'0 0.0 350 / 81001.7 5.5 3.2
2014-Nov-27 14:00N 53°24' W 129°18'0 0.0 020 / 81002.2 5.8 3.6
2014-Nov-27 13:00N 53°24' W 129°18'0 0.0 360 / 41002.0 5.8 4.1
2014-Nov-27 12:00N 53°24' W 129°18'0 0.0 360 / 91002.0 5.8 4.0
2014-Nov-27 11:00N 53°24' W 129°18'0 0.0 010 / 81002.2 5.8 4.4
2014-Nov-27 10:00N 53°24' W 129°18'0 0.0 010 / 91002.3 5.7 4.5
2014-Nov-27 09:00N 53°24' W 129°18'0 0.0 010 / 111002.6 5.5 4.7
2014-Nov-27 08:00N 53°24' W 129°18'0 0.0 010 / 131002.8 5.4 5.0
2014-Nov-27 07:00N 53°24' W 129°18'0 0.0 010 / 131003.0 5.2 5.1
2014-Nov-27 06:00N 53°24' W 129°18'0 0.0 010 / 121003.6 5.0 4.9
2014-Nov-27 05:00N 53°24' W 129°18'0 0.0 360 / 141004.3 5.3 5.2
2014-Nov-27 04:00N 53°24' W 129°18'0 0.0 020 / 141005.2 5.7 5.4
2014-Nov-27 03:00N 53°24' W 129°18'0 0.0 030 / 141006.4 6.5 4.9 8.5
2014-Nov-27 02:00N 53°24' W 129°18'0 0.0 020 / 131007.4 6.7 4.7 8.7
2014-Nov-27 01:00N 53°24' W 129°18'7 7.2 360 / 81008.5 6.5 4.6 8.4
2014-Nov-27 00:00N 53°24' W 129°06'9 9.3 050 / 171010.3 10.4 8.1 9.4
2014-Nov-26 23:00N 53°30' W 128°54'4 3.6 080 / 91011.7 6.0 4.6 9.0
2014-Nov-26 22:00N 53°30' W 128°48'0 0.0 040 / 31013.3 4.6 4.6 9.1
2014-Nov-26 21:00N 53°30' W 128°48'0 0.0 110 / 11014.8 4.7 4.7 9.1
2014-Nov-26 20:00N 53°30' W 128°48'7 7.0 010 / 31016.5 4.3 4.3 9.1
2014-Nov-26 19:00N 53°24' W 128°54'7 7.0 020 / 141015.9 5.0 4.9 9.0
2014-Nov-26 18:00N 53°18' W 129°00'7 7.0 030 / 101016.4 5.8 5.7 9.1
2014-Nov-26 17:00N 53°12' W 129°06'6 6.0 020 / 71016.5 6.0 5.9 9.7
2014-Nov-26 16:00N 53°06' W 129°06'0 0.0 120 / 31017.0 4.4 4.6
2014-Nov-26 15:00N 53°06' W 129°06'0 0.0 120 / 51017.3 4.1 4.3
2014-Nov-26 14:00N 53°06' W 129°06'0 0.0 110 / 51017.5 4.2 4.4
2014-Nov-26 13:00N 53°06' W 129°06'0 0.0 140 / 31018.3 4.4 4.6
2014-Nov-26 12:00N 53°06' W 129°06'0 0.0 130 / 61019.4 4.3 4.5
2014-Nov-26 11:00N 53°06' W 129°06'0 0.0 120 / 71019.7 4.3 4.5
2014-Nov-26 10:00N 53°06' W 129°06'0 0.0 120 / 71019.6 4.3 4.5
2014-Nov-26 09:00N 53°06' W 129°06'0 0.0 110 / 61020.7 4.6 4.8
2014-Nov-26 08:00N 53°06' W 129°06'0 0.0 110 / 41021.2 4.9 5.1
2014-Nov-26 07:00N 53°06' W 129°06'0 0.0 110 / 51021.7 5.0 5.2
2014-Nov-26 06:00N 53°06' W 129°06'0 0.0 110 / 61021.6 5.1 5.3
2014-Nov-26 05:00N 53°06' W 129°06'0 0.0 170 / 21021.8 5.4 5.6
2014-Nov-26 04:00N 53°06' W 129°06'0 0.0 100 / 41021.8 5.2 5.4
2014-Nov-26 03:00N 53°06' W 129°06'0 0.0 110 / 31022.3 5.4 5.610.2
2014-Nov-26 02:00N 53°06' W 129°06'0 0.0 120 / 31022.4 5.5 5.610.2
2014-Nov-26 01:00N 53°06' W 129°06'1414.0 140 / 31022.5 6.3 6.3 9.7
2014-Nov-26 00:00N 52°54' W 129°18'7 7.2 030 / 141021.7 6.6 6.6 9.5
2014-Nov-25 23:00N 52°54' W 129°30'7 7.0 040 / 111022.3 7.5 7.511.1
2014-Nov-25 22:00N 52°48' W 129°36'4 3.6 020 / 71023.1 7.5 7.611.5
2014-Nov-25 21:00N 52°48' W 129°30'0 0.0 070 / 81023.0 7.8 7.911.5
2014-Nov-25 20:00N 52°48' W 129°30'6 6.0 070 / 41023.2 7.6 7.711.4
2014-Nov-25 19:00N 52°54' W 129°30'6 6.0 060 / 81023.6 8.7 8.810.4
2014-Nov-25 18:00N 53°00' W 129°30'1414.0 040 / 61023.5 6.2 6.410.2
2014-Nov-25 17:00N 53°12' W 129°42'7 7.0 070 / 61023.0 6.0 6.2 9.5
2014-Nov-25 16:00N 53°18' W 129°36'0 0.0 100 / 51023.1 4.3 4.6
2014-Nov-25 15:00N 53°18' W 129°36'0 0.0 100 / 51022.9 4.2 4.4
2014-Nov-25 14:00N 53°18' W 129°36'0 0.0 110 / 51022.9 3.9 4.2
2014-Nov-25 13:00N 53°18' W 129°36'0 0.0 120 / 51022.4 3.3 3.6
2014-Nov-25 12:00N 53°18' W 129°36'0 0.0 130 / 41022.3 3.1 3.4
2014-Nov-25 11:00N 53°18' W 129°36'0 0.0 110 / 51022.1 3.5 3.8
2014-Nov-25 10:00N 53°18' W 129°36'0 0.0 140 / 41021.9 3.7 4.0
2014-Nov-25 09:00N 53°18' W 129°36'0 0.0 140 / 51021.6 3.1 3.4
2014-Nov-25 08:00N 53°18' W 129°36'0 0.0 100 / 41021.3 3.2 3.5
2014-Nov-25 07:00N 53°18' W 129°36'0 0.0 090 / 31020.7 3.7 3.9
2014-Nov-25 06:00N 53°18' W 129°36'0 0.0 110 / 61020.0 3.8 4.1
2014-Nov-25 05:00N 53°18' W 129°36'0 0.0 110 / 31019.4 4.3 4.6
2014-Nov-25 04:00N 53°18' W 129°36'0 0.0 110 / 51018.6 4.7 4.9
2014-Nov-25 03:00N 53°18' W 129°36'0 0.0 110 / 21018.3 4.8 5.0
2014-Nov-25 02:00N 53°18' W 129°36'0 0.0 120 / 41017.4 4.4 4.7
2014-Nov-25 01:00N 53°18' W 129°36'0 0.0 120 / 41016.8 4.6 4.8
2014-Nov-25 00:00N 53°18' W 129°36'0 0.0 110 / 51016.1 5.0 5.2
2014-Nov-24 23:00N 53°18' W 129°36'0 0.0 100 / 41015.5 5.2 5.4
2014-Nov-24 22:00N 53°18' W 129°36'0 0.0 120 / 31014.9 5.2 5.4
2014-Nov-24 21:00N 53°18' W 129°36'0 0.0 110 / 41014.3 5.1 5.3
2014-Nov-24 20:00N 53°18' W 129°36'0 0.0 090 / 31013.8 5.7 5.9
2014-Nov-24 19:00N 53°18' W 129°36'0 0.0 080 / 51013.0 5.0 5.2
2014-Nov-24 18:00N 53°18' W 129°36'0 0.0 070 / 31012.0 5.2 5.4
2014-Nov-24 17:00N 53°18' W 129°36'0 0.0 100 / 61011.3 5.0 5.1
2014-Nov-24 16:00N 53°18' W 129°36'0 0.0 090 / 91010.9 5.4 5.5
2014-Nov-24 15:00N 53°18' W 129°36'0 0.0 100 / 101010.3 5.5 5.6
2014-Nov-24 14:00N 53°18' W 129°36'0 0.0 110 / 101010.6 6.6 6.6
2014-Nov-24 13:00N 53°18' W 129°36'0 0.0 090 / 151011.0 5.4 5.5
2014-Nov-24 12:00N 53°18' W 129°36'0 0.0 110 / 101012.1 7.4 7.4
2014-Nov-24 11:00N 53°18' W 129°36'0 0.0 170 / 131013.4 8.2 8.2
2014-Nov-24 10:00N 53°18' W 129°36'0 0.0 160 / 91014.3 8.0 8.0
2014-Nov-24 09:00N 53°18' W 129°36'0 0.0 140 / 91015.5 7.7 7.7
2014-Nov-24 08:00N 53°18' W 129°36'0 0.0 150 / 41016.4 7.7 7.8
2014-Nov-24 07:00N 53°18' W 129°36'0 0.0 120 / 61016.6 8.9 8.9
2014-Nov-24 06:00N 53°18' W 129°36'0 0.0 150 / 61017.3 8.4 8.6
2014-Nov-24 05:00N 53°18' W 129°36'0 0.0 100 / 61017.7 5.4 5.7
2014-Nov-24 04:00N 53°18' W 129°36'0 0.0 090 / 81017.5 5.0 5.3
2014-Nov-24 03:00N 53°18' W 129°36'0 0.0 110 / 71017.5 4.8 5.1
2014-Nov-24 02:00N 53°18' W 129°36'0 0.0 110 / 71017.5 5.1 5.4
2014-Nov-24 01:00N 53°18' W 129°36'0 0.0 110 / 31016.7 6.1 6.3
2014-Nov-24 00:00N 53°18' W 129°36'0 0.0 100 / 41015.9 7.0 7.2
2014-Nov-23 23:00N 53°18' W 129°36'0 0.0 230 / 11014.8 9.2 9.3 9.5
2014-Nov-23 22:00N 53°18' W 129°36'0 0.0 230 / 11014.5 9.1 9.2 9.7
2014-Nov-23 21:00N 53°18' W 129°36'4 3.6 300 / 11013.6 9.4 9.4 9.6
2014-Nov-23 20:00N 53°18' W 129°42'9 9.3 220 / 81012.7 7.7 7.8 9.2
2014-Nov-23 19:00N 53°24' W 129°54'7 7.0 300 / 31011.3 7.6 7.7 9.3
2014-Nov-23 18:00N 53°30' W 130°00'0 0.0 310 / 51009.7 6.3 6.5
2014-Nov-23 17:00N 53°30' W 130°00'0 0.0 300 / 71008.5 6.1 6.3
2014-Nov-23 16:00N 53°30' W 130°00'0 0.0 290 / 111006.7 6.2 6.3
2014-Nov-23 15:00N 53°30' W 130°00'0 0.0 290 / 141004.1 6.8 7.0
2014-Nov-23 14:00N 53°30' W 130°00'0 0.0 250 / 111002.5 6.7 6.9
2014-Nov-23 13:00N 53°30' W 130°00'0 0.0 160 / 21001.3 5.8 6.0
2014-Nov-23 12:00N 53°30' W 130°00'0 0.0 160 / 11000.2 5.4 5.6
2014-Nov-23 11:00N 53°30' W 130°00'0 0.0 220 / 2999.4 4.9 5.0
2014-Nov-23 10:00N 53°30' W 130°00'0 0.0 110 / 4999.1 4.7 4.8
2014-Nov-23 09:00N 53°30' W 130°00'0 0.0 130 / 3998.8 5.2 5.3
2014-Nov-23 08:00N 53°30' W 130°00'0 0.0 180 / 11999.5 5.7 5.8
2014-Nov-23 07:00N 53°30' W 130°00'0 0.0 170 / 91000.2 7.0 7.1
2014-Nov-23 06:00N 53°30' W 130°00'0 0.0 140 / 41001.1 7.6 7.6
2014-Nov-23 05:00N 53°30' W 130°00'0 0.0 140 / 101002.6 8.1 8.2
2014-Nov-23 04:00N 53°30' W 130°00'0 0.0 150 / 91003.2 8.3 8.4
2014-Nov-23 03:00N 53°30' W 130°00'0 0.0 140 / 91003.8 7.8 7.8
2014-Nov-23 02:00N 53°30' W 130°00'0 0.0 170 / 121003.8 8.1 8.2
2014-Nov-23 01:00N 53°30' W 130°00'0 0.0 160 / 91003.7 8.7 8.7
2014-Nov-23 00:00N 53°30' W 130°00'0 0.0 190 / 81003.0 9.1 9.1
2014-Nov-22 23:00N 53°30' W 130°00'0 0.0 170 / 61003.0 8.9 9.0
2014-Nov-22 22:00N 53°30' W 130°00'0 0.0 170 / 71002.8 8.4 8.5
2014-Nov-22 21:00N 53°30' W 130°00'0 0.0 160 / 71002.4 7.6 7.7
2014-Nov-22 20:00N 53°30' W 130°00'0 0.0 140 / 111002.1 7.2 7.3
2014-Nov-22 19:00N 53°30' W 130°00'0 0.0 150 / 71001.8 7.4 7.5
2014-Nov-22 18:00N 53°30' W 130°00'0 0.0 160 / 81001.0 7.3 7.5
2014-Nov-22 17:00N 53°30' W 130°00'0 0.0 160 / 101000.4 6.9 7.1
2014-Nov-22 16:00N 53°30' W 130°00'0 0.0 160 / 9999.8 7.0 7.1
2014-Nov-22 15:00N 53°30' W 130°00'0 0.0 150 / 9999.2 7.0 7.1
2014-Nov-22 14:00N 53°30' W 130°00'0 0.0 140 / 7998.7 6.9 7.0
2014-Nov-22 13:00N 53°30' W 130°00'0 0.0 110 / 1998.0 6.5 6.7
2014-Nov-22 12:00N 53°30' W 130°00'0 0.0 100 / 4997.3 5.7 5.9
2014-Nov-22 11:00N 53°30' W 130°00'0 0.0 100 / 3996.7 5.6 5.8
2014-Nov-22 10:00N 53°30' W 130°00'0 0.0 120 / 3995.8 5.5 5.7
2014-Nov-22 09:00N 53°30' W 130°00'0 0.0 080 / 1995.1 5.6 5.8
2014-Nov-22 08:00N 53°30' W 130°00'0 0.0 130 / 3994.2 6.0 6.1
2014-Nov-22 07:00N 53°30' W 130°00'0 0.0 090 / 3993.6 6.7 6.8
2014-Nov-22 06:00N 53°30' W 130°00'0 0.0 040 / 2993.0 7.1 7.3
2014-Nov-22 05:00N 53°30' W 130°00'0 0.0 010 / 4992.4 7.1 7.2
2014-Nov-22 04:00N 53°30' W 130°00'0 0.0 340 / 2992.1 6.9 7.1
2014-Nov-22 03:00N 53°30' W 130°00'0 0.0 310 / 2991.7 7.0 7.1
2014-Nov-22 02:00N 53°30' W 130°00'0 0.0 320 / 4991.4 7.7 7.8
2014-Nov-22 01:00N 53°30' W 130°00'0 0.0 310 / 6991.1 7.8 7.9
2014-Nov-22 00:00N 53°30' W 130°00'0 0.0 300 / 5990.7 7.7 7.8
2014-Nov-21 23:00N 53°30' W 130°00'0 0.0 280 / 3990.4 7.8 7.9 9.6
2014-Nov-21 22:00N 53°30' W 130°00'0 0.0 300 / 2990.6 7.6 7.7 9.5
2014-Nov-21 21:00N 53°30' W 130°00'1312.5 330 / 3990.7 7.0 7.1 9.4
2014-Nov-21 20:00N 53°42' W 130°06'7 7.0 220 / 4991.1 7.0 7.2 9.4
2014-Nov-21 19:00N 53°48' W 130°12'6 6.0 250 / 6990.7 7.0 7.110.2
2014-Nov-21 18:00N 53°54' W 130°12'1312.5 130 / 31988.3 6.9 7.1 9.6
2014-Nov-21 17:00N 54°06' W 130°18'7 7.0 150 / 17989.2 7.3 7.510.3
2014-Nov-21 16:00N 54°06' W 130°30'0 0.0 160 / 15990.9 7.7 7.9
2014-Nov-21 15:00N 54°06' W 130°30'0 0.0 150 / 16991.6 7.9 8.0
2014-Nov-21 14:00N 54°06' W 130°30'0 0.0 150 / 14992.4 7.7 7.9
2014-Nov-21 13:00N 54°06' W 130°30'0 0.0 170 / 12993.5 8.0 8.1
2014-Nov-21 12:00N 54°06' W 130°30'0 0.0 160 / 13994.2 8.2 8.3
2014-Nov-21 11:00N 54°06' W 130°30'0 0.0 150 / 10995.7 8.1 8.1
2014-Nov-21 10:00N 54°06' W 130°30'0 0.0 140 / 12996.3 8.8 8.8
2014-Nov-21 09:00N 54°06' W 130°30'0 0.0 110 / 6997.7 8.1 8.1
2014-Nov-21 08:00N 54°06' W 130°30'0 0.0 140 / 5998.5 9.1 9.1
2014-Nov-21 07:00N 54°06' W 130°30'0 0.0 150 / 24998.5 9.3 9.3
2014-Nov-21 06:00N 54°06' W 130°30'0 0.0 150 / 16998.9 9.4 9.5
2014-Nov-21 05:00N 54°06' W 130°30'0 0.0 210 / 10998.4 9.810.010.2
2014-Nov-21 04:00N 54°06' W 130°30'0 0.0 180 / 8997.4 10.110.410.3
2014-Nov-21 03:00N 54°06' W 130°30'7 7.0 170 / 12997.0 9.3 9.510.2
2014-Nov-21 02:00N 54°12' W 130°24'4 7.8 100 / 8997.2 8.6 8.8 9.5
2014-Nov-21 01:26N 54°16' W 130°22'3 6.6
2014-Nov-21 01:00N 54°18' W 130°18'0 0.0 040 / 6998.0 8.8 9.1 9.2
2014-Nov-21 00:00N 54°18' W 130°18'0 0.0 150 / 4998.4 8.4 8.6 9.9
2014-Nov-20 23:00N 54°18' W 130°18'0 0.0 130 / 1998.9 8.3 8.6 9.8
2014-Nov-20 22:00N 54°18' W 130°18'0 0.0 140 / 5999.5 8.3 8.5 9.7
2014-Nov-20 21:00N 54°18' W 130°18'0 0.0 110 / 6999.7 9.1 9.3 9.0
2014-Nov-20 20:00N 54°18' W 130°18'1 3.0 080 / 21000.6 7.9 8.1
2014-Nov-20 19:32N 54°19' W 130°19'1 2.5
2014-Nov-20 19:00N 54°18' W 130°18'1 2.7 1001.2 8.7 8.9 9.2
2014-Nov-20 18:29N 54°19' W 130°19'1 2.8
2014-Nov-20 18:00N 54°18' W 130°18'1 2.5 080 / 21001.4 8.5 8.7 9.1
2014-Nov-20 17:26N 54°19' W 130°19'1 3.1
2014-Nov-20 17:00N 54°18' W 130°18'1 3.0 350 / 11001.7 8.6 8.8 8.9
2014-Nov-20 16:32N 54°19' W 130°19'1 2.5
2014-Nov-20 16:00N 54°18' W 130°18'3 5.9 060 / 61002.1 8.2 8.4 8.2
2014-Nov-20 15:33N 54°17' W 130°22'5 9.0
2014-Nov-20 15:00N 54°12' W 130°24'7 7.0 120 / 131002.3 8.1 8.2 9.2
2014-Nov-20 14:00N 54°06' W 130°18'1312.5 080 / 121002.8 6.7 6.9 9.5
2014-Nov-20 13:00N 53°54' W 130°12'4 3.5 130 / 171002.9 8.9 9.0 9.5
2014-Nov-20 12:00N 53°54' W 130°18'7 7.0 040 / 81002.9 8.8 8.9 9.7
2014-Nov-20 11:00N 53°48' W 130°12'7 7.0 130 / 71003.2 11.811.8 9.9
2014-Nov-20 10:00N 53°42' W 130°06'1312.5 110 / 121003.8 10.510.6 9.1
2014-Nov-20 09:00N 53°30' W 130°00'7 7.0 110 / 31004.3 8.4 8.7 8.9
2014-Nov-20 08:00N 53°24' W 129°54'7 7.0 140 / 21004.7 8.6 8.8 9.0
2014-Nov-20 07:00N 53°18' W 129°48'4 3.6 040 / 51004.6 9.3 9.3 9.0
2014-Nov-20 06:00N 53°18' W 129°42'0 0.0 110 / 91005.0 9.2 9.2
2014-Nov-20 05:00N 53°18' W 129°42'0 0.0 330 / 31005.3 8.7 8.8
2014-Nov-20 04:00N 53°18' W 129°42'0 0.0 120 / 131006.5 8.6 8.7
2014-Nov-20 03:00N 53°18' W 129°42'0 0.0 110 / 91007.1 8.9 9.0 9.1
2014-Nov-20 02:00N 53°18' W 129°42'0 0.0 100 / 131007.3 8.4 8.5 9.1
2014-Nov-20 01:00N 53°18' W 129°42'0 0.0 120 / 101008.2 7.8 7.9 9.1
2014-Nov-20 00:00N 53°18' W 129°42'1312.5 110 / 111008.1 7.9 8.0 9.0
2014-Nov-19 23:00N 53°06' W 129°36'7 3.5 070 / 101008.0 7.9 8.0 9.4
2014-Nov-19 21:00N 53°00' W 129°30'1414.0 050 / 61008.4 8.8 8.8 9.6
2014-Nov-19 20:00N 53°12' W 129°42'1414.0 120 / 161009.3 7.6 7.7 9.1
2014-Nov-19 19:00N 53°24' W 129°54'7 7.0 290 / 71009.9 8.1 8.3 9.0
2014-Nov-19 18:00N 53°30' W 130°00'0 0.0 090 / 11010.8 8.5 8.6
2014-Nov-19 17:00N 53°30' W 130°00'0 0.0 090 / 71011.0 9.3 9.4
2014-Nov-19 16:00N 53°30' W 130°00'0 0.0 180 / 31011.4 9.6 9.6
2014-Nov-19 15:00N 53°30' W 130°00'0 0.0 150 / 61011.7 10.310.2
2014-Nov-19 14:00N 53°30' W 130°00'0 0.0 190 / 41012.0 9.7 9.7
2014-Nov-19 13:00N 53°30' W 130°00'0 0.0 140 / 71012.5 9.8 9.8
2014-Nov-19 12:00N 53°30' W 130°00'0 0.0 170 / 91012.8 10.310.3
2014-Nov-19 11:00N 53°30' W 130°00'0 0.0 150 / 81013.5 10.710.7
2014-Nov-19 10:00N 53°30' W 130°00'0 0.0 180 / 81013.8 10.210.2
2014-Nov-19 09:00N 53°30' W 130°00'0 0.0 140 / 51014.0 10.410.4
2014-Nov-19 08:00N 53°30' W 130°00'0 0.0 180 / 51014.0 10.210.2
2014-Nov-19 07:00N 53°30' W 130°00'0 0.0 160 / 51014.3 10.810.9
2014-Nov-19 06:00N 53°30' W 130°00'0 0.0 140 / 51014.4 10.310.4
2014-Nov-19 05:00N 53°30' W 130°00'0 0.0 140 / 41014.6 10.210.3
2014-Nov-19 04:00N 53°30' W 130°00'0 0.0 130 / 61014.9 10.310.4
2014-Nov-19 03:00N 53°30' W 130°00'0 0.0 140 / 61015.2 10.110.3
2014-Nov-19 02:00N 53°30' W 130°00'0 0.0 160 / 31015.6 9.810.0
2014-Nov-19 01:00N 53°30' W 130°00'0 0.0 150 / 11015.8 8.6 8.9 9.0
2014-Nov-19 00:00N 53°30' W 130°00'0 0.0 170 / 21016.0 8.9 9.1 8.9
2014-Nov-18 23:00N 53°30' W 130°00'7 7.0 160 / 71016.0 8.7 8.9 9.0
2014-Nov-18 22:00N 53°24' W 129°54'2210.8 120 / 151016.2 10.210.4 8.8
2014-Nov-18 20:00N 53°12' W 129°24'1414.0 050 / 121018.0 5.3 5.4 8.6
2014-Nov-18 19:00N 53°24' W 129°12'6 6.0 010 / 271019.3 13.713.1 8.8
2014-Nov-18 18:00N 53°30' W 129°12'0 0.0 310 / 81019.5 2.8 2.8
2014-Nov-18 17:00N 53°30' W 129°12'0 0.0 300 / 151019.4 2.5 2.5
2014-Nov-18 16:00N 53°30' W 129°12'0 0.0 310 / 21019.5 2.7 2.7
2014-Nov-18 15:00N 53°30' W 129°12'0 0.0 320 / 21019.8 2.3 2.3
2014-Nov-18 14:00N 53°30' W 129°12'0 0.0 310 / 31020.1 2.4 2.4
2014-Nov-18 13:00N 53°30' W 129°12'0 0.0 280 / 81020.8 2.8 2.7
2014-Nov-18 12:00N 53°30' W 129°12'0 0.0 240 / 51020.4 3.2 2.9
2014-Nov-18 11:00N 53°30' W 129°12'0 0.0 310 / 51021.2 3.1 2.8
2014-Nov-18 10:00N 53°30' W 129°12'0 0.0 020 / 101021.8 3.7 1.7
2014-Nov-18 09:00N 53°30' W 129°12'0 0.0 340 / 61021.0 4.1 0.8
2014-Nov-18 08:00N 53°30' W 129°12'0 0.0 010 / 81020.8 4.1 0.8
2014-Nov-18 07:00N 53°30' W 129°12'0 0.0 030 / 71021.4 3.8 0.6
2014-Nov-18 06:00N 53°30' W 129°12'0 0.0 360 / 51021.8 3.9 0.5
2014-Nov-18 05:00N 53°30' W 129°12'0 0.0 340 / 21022.3 3.9 0.8
2014-Nov-18 04:00N 53°30' W 129°12'0 0.0 340 / 51023.0 3.8 0.4
2014-Nov-18 03:00N 53°30' W 129°12'0 0.0 330 / 81023.5 3.6 0.3
2014-Nov-18 02:00N 53°30' W 129°12'0 0.0 360 / 41024.3 3.8 0.5
2014-Nov-18 01:00N 53°30' W 129°12'0 0.0 310 / 61024.7 3.8 0.8
2014-Nov-18 00:00N 53°30' W 129°12'0 0.0 320 / 71025.3 4.2 0.9
2014-Nov-17 23:00N 53°30' W 129°12'0 0.0 360 / 41025.8 4.2 1.0
2014-Nov-17 22:00N 53°30' W 129°12'0 0.0 320 / 81026.4 3.9 0.7
2014-Nov-17 21:00N 53°30' W 129°12'0 0.0 320 / 71026.9 3.6 0.7
2014-Nov-17 20:00N 53°30' W 129°12'   330 / 61027.6 3.0 0.3

Dump ship's entire track history